Time;durP1;ratioP1;P1;durP2;ratioP2;P2;SDS_P1;SDS_P2;PMS_P1;PMS_P2;Temp;Humidity;BMP_temperature;BMP_pressure;BME280_temperature;BME280_humidity;BME280_pressure;Samples;Min_cycle;Max_cycle;Signal;HPM_P1;HPM_P2
2022/08/27 00:00:41;;;;;;;;;;;;;;;23.59;50.14;101623.72;7282651;19;153321;-62
2022/08/27 00:03:08;;;;;;;;;;;;;;;23.59;50.28;101620.88;7282552;19;153541;-61
2022/08/27 00:05:35;;;;;;;;;;;;;;;23.58;50.69;101613.56;7278347;19;152284;-62
2022/08/27 00:08:06;;;;;;;;;;;;;;;23.58;50.37;101613.56;7288744;19;152735;-61
2022/08/27 00:10:33;;;;;;;;;;;;;;;23.58;50.25;101622.03;7287555;19;152466;-61
2022/08/27 00:13:00;;;;;;;;;;;;;;;23.59;50.43;101620.03;7289056;19;152817;-64
2022/08/27 00:15:28;;;;;;;;;;;;;;;23.59;50.44;101620.03;7287628;19;154090;-62
2022/08/27 00:17:55;;;;;;;;;;;;;;;23.59;50.67;101611.59;7287017;19;152742;-61
2022/08/27 00:20:24;;;;;;;;;;;;;;;23.59;50.64;101611.59;7285416;19;152135;-63
2022/08/27 00:22:52;;;;;;;;;;;;;;;23.58;50.88;101601.44;7287750;19;154359;-64
2022/08/27 00:25:19;;;;;;;;;;;;;;;23.59;50.58;101603.13;7288707;19;152161;-63
2022/08/27 00:27:46;;;;;;;;;;;;;;;23.59;50.65;101603.97;7288255;19;153883;-63
2022/08/27 00:30:15;;;;;;;;;;;;;;;23.58;50.58;101602.28;7294281;19;153108;-64
2022/08/27 00:32:42;;;;;;;;;;;;;;;23.57;50.93;101600.63;7288297;19;152247;-62
2022/08/27 00:35:09;;;;;;;;;;;;;;;23.57;50.81;101609.09;7283717;19;153238;-62
2022/08/27 00:37:37;;;;;;;;;;;;;;;23.58;50.59;101607.09;7288678;19;152422;-63
2022/08/27 00:40:08;;;;;;;;;;;;;;;23.59;50.62;101597.47;7287625;19;153927;-63
2022/08/27 00:42:35;;;;;;;;;;;;;;;23.58;50.95;101595.81;7287388;19;152991;-64
2022/08/27 00:45:06;;;;;;;;;;;;;;;23.58;51.10;101591.00;7286973;19;152147;-63
2022/08/27 00:47:39;;;;;;;;;;;;;;;23.57;50.71;101596.97;7288393;19;153569;-62
2022/08/27 00:50:09;;;;;;;;;;;;;;;23.57;50.86;101589.34;7291513;19;153803;-63
2022/08/27 00:52:50;;;;;;;;;;;;;;;23.60;50.98;101590.69;7288759;19;153406;-63
2022/08/27 00:55:20;;;;;;;;;;;;;;;23.58;51.25;101587.34;7286544;19;154548;-63
2022/08/27 00:57:51;;;;;;;;;;;;;;;23.58;51.37;101585.34;7286530;19;152307;-63
2022/08/27 01:00:18;;;;;;;;;;;;;;;23.62;51.19;101589.22;7287368;19;152919;-63
2022/08/27 01:02:47;;;;;;;;;;;;;;;23.59;51.66;101589.00;7286372;19;155286;-64
2022/08/27 01:05:20;;;;;;;;;;;;;;;23.58;51.25;101578.88;7281921;19;152231;-64
2022/08/27 01:07:49;;;;;;;;;;;;;;;23.58;51.38;101584.50;7287064;19;151697;-63
2022/08/27 01:10:19;;;;;;;;;;;;;;;23.58;51.28;101587.34;7284788;19;153529;-63
2022/08/27 01:12:46;;;;;;;;;;;;;;;23.57;51.15;101583.72;7294281;19;155101;-63
2022/08/27 01:15:20;;;;;;;;;;;;;;;23.56;51.41;101582.03;7285459;19;152673;-63
2022/08/27 01:17:47;;;;;;;;;;;;;;;23.57;51.41;101582.88;7282697;19;152867;-62
2022/08/27 01:20:18;;;;;;;;;;;;;;;23.57;51.58;101588.50;7284437;19;152770;-63
2022/08/27 01:22:52;;;;;;;;;;;;;;;23.57;51.87;101580.03;7285930;19;153402;-63
2022/08/27 01:25:20;;;;;;;;;;;;;;;23.54;51.35;101586.28;7287420;19;153582;-63
2022/08/27 01:27:47;;;;;;;;;;;;;;;23.57;51.96;101585.69;7286232;19;154018;-62
2022/08/27 01:30:17;;;;;;;;;;;;;;;23.56;51.81;101584.84;7285495;19;153982;-63
2022/08/27 01:32:44;;;;;;;;;;;;;;;23.56;51.47;101586.84;7286761;19;152662;-63
2022/08/27 01:35:13;;;;;;;;;;;;;;;23.54;51.72;101587.13;7290872;19;153005;-63
2022/08/27 01:37:42;;;;;;;;;;;;;;;23.55;52.06;101590.78;7285588;19;152289;-63
2022/08/27 01:40:10;;;;;;;;;;;;;;;23.55;51.82;101588.81;7285115;19;152536;-64
2022/08/27 01:42:44;;;;;;;;;;;;;;;23.56;51.81;101584.00;7282865;19;154312;-63
2022/08/27 01:45:13;;;;;;;;;;;;;;;23.56;51.92;101579.22;7287201;19;152724;-62
2022/08/27 01:47:41;;;;;;;;;;;;;;;23.57;51.96;101580.88;7286798;19;156065;-64
2022/08/27 01:50:14;;;;;;;;;;;;;;;23.55;52.25;101588.81;7279830;19;153120;-63
2022/08/27 01:52:40;;;;;;;;;;;;;;;23.54;52.12;101583.47;7285946;19;152256;-63
2022/08/27 01:55:08;;;;;;;;;;;;;;;23.52;51.92;101577.31;7285682;19;153451;-63
2022/08/27 01:57:36;;;;;;;;;;;;;;;23.52;51.91;101580.16;7292303;19;156230;-63
2022/08/27 02:00:04;;;;;;;;;;;;;;;23.52;52.30;101577.31;7284728;19;153479;-62
2022/08/27 02:02:31;;;;;;;;;;;;;;;23.53;52.17;101579.00;7286149;19;154745;-63
2022/08/27 02:04:59;;;;;;;;;;;;;;;23.50;52.55;101572.00;7281380;19;153113;-64
2022/08/27 02:07:29;;;;;;;;;;;;;;;23.53;52.36;101579.81;7286362;19;152219;-63
2022/08/27 02:09:57;;;;;;;;;;;;;;;23.50;52.60;101574.81;7283557;19;154605;-64
2022/08/27 02:12:23;;;;;;;;;;;;;;;23.49;52.31;101582.44;7286058;19;152444;-63
2022/08/27 02:14:57;;;;;;;;;;;;;;;23.48;52.20;101580.75;7284527;19;153486;-63
2022/08/27 02:17:27;;;;;;;;;;;;;;;23.49;52.58;101581.59;7284484;19;153169;-64
2022/08/27 02:19:54;;;;;;;;;;;;;;;23.49;52.70;101588.06;7288195;19;152251;-63
2022/08/27 02:22:21;;;;;;;;;;;;;;;23.48;52.82;101585.59;7285680;19;153928;-63
2022/08/27 02:24:48;;;;;;;;;;;;;;;23.47;52.79;101581.09;7282949;19;151844;-62
2022/08/27 02:27:15;;;;;;;;;;;;;;;23.46;52.36;101583.06;7279764;19;153605;-62
2022/08/27 02:29:41;;;;;;;;;;;;;;;23.46;52.90;101583.06;7283602;19;153255;-64
2022/08/27 02:32:11;;;;;;;;;;;;;;;23.47;52.91;101584.75;7285288;19;152333;-63
2022/08/27 02:34:57;;;;;;;;;;;;;;;23.46;52.73;101583.06;7280997;19;153714;-62
2022/08/27 02:37:24;;;;;;;;;;;;;;;23.48;52.81;101588.41;7284053;19;153138;-63
2022/08/27 02:39:51;;;;;;;;;;;;;;;23.46;52.87;101583.06;7292024;19;152589;-63
2022/08/27 02:42:18;;;;;;;;;;;;;;;23.47;52.91;101584.75;7284077;19;154615;-63
2022/08/27 02:44:46;;;;;;;;;;;;;;;23.47;52.90;101584.75;7284412;19;152012;-62
2022/08/27 02:47:13;;;;;;;;;;;;;;;23.46;52.96;101593.50;7284363;19;153951;-63
2022/08/27 02:49:40;;;;;;;;;;;;;;;23.46;52.99;101591.53;7280633;19;153905;-63
2022/08/27 02:52:07;;;;;;;;;;;;;;;23.46;52.61;101593.50;7286044;19;153410;-62
2022/08/27 02:54:34;;;;;;;;;;;;;;;23.46;52.75;101588.72;7283410;19;152930;-63
2022/08/27 02:57:01;;;;;;;;;;;;;;;23.47;53.12;101592.38;7283314;19;153447;-62
2022/08/27 02:59:28;;;;;;;;;;;;;;;23.46;52.89;101588.72;7283548;19;152438;-63
2022/08/27 03:01:54;;;;;;;;;;;;;;;23.45;53.06;101578.56;7292395;19;153259;-63
2022/08/27 03:04:22;;;;;;;;;;;;;;;23.47;52.89;101584.75;7281533;19;152713;-64
2022/08/27 03:06:49;;;;;;;;;;;;;;;23.46;53.14;101585.88;7281715;19;153729;-64
2022/08/27 03:09:16;;;;;;;;;;;;;;;23.46;53.09;101588.72;7279753;19;154370;-63
2022/08/27 03:11:42;;;;;;;;;;;;;;;23.45;52.93;101589.84;7284596;19;152384;-63
2022/08/27 03:14:09;;;;;;;;;;;;;;;23.45;53.01;101589.00;7282421;19;153812;-62
2022/08/27 03:16:36;;;;;;;;;;;;;;;23.45;52.87;101586.19;7283733;19;153987;-63
2022/08/27 03:19:06;;;;;;;;;;;;;;;23.44;52.84;101579.72;7279134;19;152099;-63
2022/08/27 03:21:34;;;;;;;;;;;;;;;23.44;52.79;101578.88;7283761;19;153382;-62
2022/08/27 03:24:01;;;;;;;;;;;;;;;23.43;53.26;101585.66;7289234;19;154342;-63
2022/08/27 03:26:36;;;;;;;;;;;;;;;23.42;53.30;101582.00;7285342;19;153184;-62
2022/08/27 03:29:04;;;;;;;;;;;;;;;23.44;52.81;101581.69;7281484;19;154620;-63
2022/08/27 03:31:30;;;;;;;;;;;;;;;23.44;53.28;101584.50;7284276;19;152313;-63
2022/08/27 03:33:59;;;;;;;;;;;;;;;23.43;53.11;101580.84;7282376;19;153463;-63
2022/08/27 03:36:27;;;;;;;;;;;;;;;23.44;53.11;101573.22;7282043;19;154004;-63
2022/08/27 03:38:54;;;;;;;;;;;;;;;23.42;53.02;101575.50;7280317;19;152161;-63
2022/08/27 03:41:22;;;;;;;;;;;;;;;23.42;52.82;101567.91;7284734;19;156194;-63
2022/08/27 03:44:09;;;;;;;;;;;;;;;23.42;52.83;101569.88;7280662;19;156938;-63
2022/08/27 03:46:44;;;;;;;;;;;;;;;23.43;52.86;101575.22;7290561;19;152070;-63
2022/08/27 03:49:11;;;;;;;;;;;;;;;23.41;52.83;101566.22;7279029;19;154099;-62
2022/08/27 03:51:38;;;;;;;;;;;;;;;23.41;52.90;101580.31;7282501;19;151856;-63
2022/08/27 03:54:05;;;;;;;;;;;;;;;23.41;53.16;101579.47;7281121;19;153831;-63
2022/08/27 03:56:38;;;;;;;;;;;;;;;23.41;52.91;101587.94;7282546;19;152649;-64
2022/08/27 03:59:05;;;;;;;;;;;;;;;23.40;53.24;101584.28;7278859;19;152248;-62
2022/08/27 04:01:32;;;;;;;;;;;;;;;23.39;53.21;101585.41;7282811;19;153149;-63
2022/08/27 04:03:59;;;;;;;;;;;;;;;23.39;52.74;101582.59;7279553;19;154466;-63
2022/08/27 04:06:27;;;;;;;;;;;;;;;23.42;52.96;101579.16;7279382;19;152921;-63
2022/08/27 04:08:53;;;;;;;;;;;;;;;23.39;52.90;101582.59;7288745;19;152692;-63
2022/08/27 04:11:20;;;;;;;;;;;;;;;23.41;52.77;101582.28;7281776;19;153481;-64
2022/08/27 04:13:47;;;;;;;;;;;;;;;23.40;52.61;101586.25;7278650;19;153083;-63
2022/08/27 04:16:14;;;;;;;;;;;;;;;23.39;52.98;101588.25;7282034;19;152708;-63
2022/08/27 04:18:41;;;;;;;;;;;;;;;23.44;52.95;101576.88;7279090;19;152564;-63
2022/08/27 04:21:10;;;;;;;;;;;;;;;23.39;52.81;101576.97;7279359;19;153235;-63
2022/08/27 04:23:37;;;;;;;;;;;;;;;23.40;52.77;101581.47;7281157;19;153703;-63
2022/08/27 04:26:05;;;;;;;;;;;;;;;23.39;52.81;101585.41;7277431;19;152141;-62
2022/08/27 04:28:32;;;;;;;;;;;;;;;23.38;52.92;101586.59;7281387;19;154117;-63
2022/08/27 04:31:06;;;;;;;;;;;;;;;23.39;52.90;101590.25;7286586;19;152914;-63
2022/08/27 04:33:42;;;;;;;;;;;;;;;23.38;52.99;101583.78;7281618;19;153595;-63
2022/08/27 04:36:16;;;;;;;;;;;;;;;23.39;52.54;101576.97;7279698;19;154827;-63
2022/08/27 04:38:43;;;;;;;;;;;;;;;23.38;52.98;101582.94;7278686;19;153380;-63
2022/08/27 04:41:20;;;;;;;;;;;;;;;23.37;52.89;101582.09;7282866;19;153290;-63
2022/08/27 04:43:48;;;;;;;;;;;;;;;23.38;52.61;101578.13;7278564;19;155343;-62
2022/08/27 04:46:18;;;;;;;;;;;;;;;23.39;52.77;101587.44;7279581;19;151877;-63
2022/08/27 04:48:45;;;;;;;;;;;;;;;23.36;52.90;101582.41;7280750;19;152709;-62
2022/08/27 04:51:14;;;;;;;;;;;;;;;23.38;52.86;101588.56;7285114;19;154730;-63
2022/08/27 04:53:43;;;;;;;;;;;;;;;23.38;52.84;101588.56;7282509;19;152829;-63
2022/08/27 04:56:12;;;;;;;;;;;;;;;23.37;52.88;101582.09;7285585;19;154006;-63
2022/08/27 04:58:41;;;;;;;;;;;;;;;23.39;52.60;101588.25;7285621;19;152765;-64
2022/08/27 05:01:13;;;;;;;;;;;;;;;23.38;52.58;101591.41;7286575;19;153052;-63
2022/08/27 05:03:41;;;;;;;;;;;;;;;23.37;52.60;101590.56;7287114;19;153652;-63
2022/08/27 05:06:07;;;;;;;;;;;;;;;23.37;53.07;101593.38;7282287;19;152554;-62
2022/08/27 05:08:34;;;;;;;;;;;;;;;23.39;52.98;101599.53;7287114;19;152848;-63
2022/08/27 05:11:01;;;;;;;;;;;;;;;23.35;53.10;101600.47;7286041;19;154040;-63
2022/08/27 05:13:28;;;;;;;;;;;;;;;23.36;52.73;101604.94;7292979;19;152340;-63
2022/08/27 05:16:02;;;;;;;;;;;;;;;23.34;53.09;101602.47;7285696;19;154137;-63
2022/08/27 05:18:29;;;;;;;;;;;;;;;23.44;52.74;101595.78;7286144;19;154523;-63
2022/08/27 05:21:00;;;;;;;;;;;;;;;23.35;52.54;101598.47;7283705;19;153338;-62
2022/08/27 05:23:27;;;;;;;;;;;;;;;23.33;52.63;101600.78;7284565;19;152490;-62
2022/08/27 05:25:55;;;;;;;;;;;;;;;23.34;52.64;101601.63;7286626;19;152017;-62
2022/08/27 05:28:24;;;;;;;;;;;;;;;23.32;53.18;101603.91;7286802;19;153867;-63
2022/08/27 05:30:55;;;;;;;;;;;;;;;23.33;53.00;101611.22;7285128;19;154445;-63
2022/08/27 05:33:24;;;;;;;;;;;;;;;23.29;52.97;101613.84;7286050;19;152072;-63
2022/08/27 05:35:53;;;;;;;;;;;;;;;23.30;53.27;101609.88;7290576;19;153356;-63
2022/08/27 05:38:20;;;;;;;;;;;;;;;23.32;52.86;101613.22;7285344;19;152286;-64
2022/08/27 05:40:47;;;;;;;;;;;;;;;23.33;52.85;101614.06;7284621;19;153576;-63
2022/08/27 05:43:15;;;;;;;;;;;;;;;23.32;53.13;101618.84;7284467;19;154983;-63
2022/08/27 05:45:46;;;;;;;;;;;;;;;23.33;53.08;101616.88;7286207;19;153015;-62
2022/08/27 05:48:14;;;;;;;;;;;;;;;23.35;52.79;101617.38;7284383;19;154613;-63
2022/08/27 05:50:42;;;;;;;;;;;;;;;23.32;52.78;101612.38;7281767;19;153150;-63
2022/08/27 05:53:10;;;;;;;;;;;;;;;23.32;52.87;101618.00;7285640;19;152150;-63
2022/08/27 05:55:41;;;;;;;;;;;;;;;23.32;52.98;101616.03;7285567;19;153705;-63
2022/08/27 06:01:03;;;;;;;;;;;;;;;23.33;52.64;101629.00;7291878;19;154315;-63
2022/08/27 06:01:04;;;;;;;;;;;;;;;23.31;52.89;101621.97;7286291;19;153116;-63
2022/08/27 06:03:36;;;;;;;;;;;;;;;23.33;52.82;101620.53;7283844;19;152978;-63
2022/08/27 06:06:05;;;;;;;;;;;;;;;23.32;52.93;101620.84;7278446;19;152698;-63
2022/08/27 06:08:31;;;;;;;;;;;;;;;23.30;53.06;101611.88;7285738;19;152811;-64
2022/08/27 06:11:04;;;;;;;;;;;;;;;23.30;52.95;101617.50;7283046;19;154324;-64
2022/08/27 06:13:31;;;;;;;;;;;;;;;23.28;52.99;101623.44;7284945;19;151957;-62
2022/08/27 06:16:01;;;;;;;;;;;;;;;23.30;52.97;101625.97;7285736;19;153206;-62
2022/08/27 06:18:32;;;;;;;;;;;;;;;23.30;52.99;101621.16;7283830;19;153719;-63
2022/08/27 06:20:59;;;;;;;;;;;;;;;23.29;52.73;101624.28;7289239;19;151916;-63
2022/08/27 06:23:27;;;;;;;;;;;;;;;23.28;52.96;101626.25;7284447;19;154591;-63
2022/08/27 06:25:55;;;;;;;;;;;;;;;23.30;52.76;101628.78;7285576;19;152355;-62
2022/08/27 06:28:23;;;;;;;;;;;;;;;23.29;52.98;101633.59;7285069;19;153982;-63
2022/08/27 06:30:50;;;;;;;;;;;;;;;23.28;53.04;101636.69;7283811;19;153754;-64
2022/08/27 06:33:16;;;;;;;;;;;;;;;23.30;53.18;101631.59;7285508;19;152446;-64
2022/08/27 06:35:43;;;;;;;;;;;;;;;23.27;53.02;101624.59;7282962;19;153309;-63
2022/08/27 06:38:09;;;;;;;;;;;;;;;23.28;52.90;101633.88;7282972;19;154391;-63
2022/08/27 06:40:39;;;;;;;;;;;;;;;23.30;53.05;101634.41;7284927;19;151914;-63
2022/08/27 06:43:05;;;;;;;;;;;;;;;23.28;52.98;101634.72;7291491;19;152672;-62
2022/08/27 06:45:36;;;;;;;;;;;;;;;23.30;53.11;101634.41;7280401;19;152038;-62
2022/08/27 06:48:03;;;;;;;;;;;;;;;23.29;53.24;101630.75;7284536;19;152516;-64
2022/08/27 06:50:35;;;;;;;;;;;;;;;23.26;53.28;101622.09;7280046;19;154344;-63
2022/08/27 06:53:02;;;;;;;;;;;;;;;23.27;53.41;101635.84;7285330;19;151877;-62
2022/08/27 06:55:29;;;;;;;;;;;;;;;23.26;53.38;101639.81;7282472;19;153362;-63
2022/08/27 06:58:02;;;;;;;;;;;;;;;23.26;53.03;101639.00;7282008;19;153551;-63
2022/08/27 07:00:28;;;;;;;;;;;;;;;23.25;53.30;101638.19;7281162;19;154298;-63
2022/08/27 07:02:55;;;;;;;;;;;;;;;23.25;53.26;101638.19;7291311;19;152536;-63
2022/08/27 07:05:22;;;;;;;;;;;;;;;23.24;53.26;101642.13;7279086;19;152272;-62
2022/08/27 07:07:49;;;;;;;;;;;;;;;23.27;53.30;101641.50;7284521;19;153419;-63
2022/08/27 07:10:16;;;;;;;;;;;;;;;23.27;52.97;101643.47;7282961;19;153709;-62
2022/08/27 07:12:42;;;;;;;;;;;;;;;23.29;53.06;101656.13;7285269;19;152340;-63
2022/08/27 07:15:12;;;;;;;;;;;;;;;23.25;53.24;101649.44;7282833;19;153375;-64
2022/08/27 07:17:39;;;;;;;;;;;;;;;23.25;53.57;101648.63;7281992;19;153477;-63
2022/08/27 07:20:07;;;;;;;;;;;;;;;23.26;53.20;101656.75;7273875;19;152585;-62
2022/08/27 07:22:33;;;;;;;;;;;;;;;23.25;53.30;101663.53;7285372;19;153702;-62
2022/08/27 07:25:00;;;;;;;;;;;;;;;23.26;53.26;101656.75;7289502;19;154381;-63
2022/08/27 07:27:27;;;;;;;;;;;;;;;23.26;53.30;101658.75;7284053;19;152900;-63
2022/08/27 07:29:53;;;;;;;;;;;;;;;23.25;53.68;101659.88;7281964;19;153219;-64
2022/08/27 07:32:20;;;;;;;;;;;;;;;23.26;53.21;101662.38;7284729;19;152493;-63
2022/08/27 07:34:55;;;;;;;;;;;;;;;23.26;53.25;101667.22;7281584;19;155719;-63
2022/08/27 07:37:22;;;;;;;;;;;;;;;23.24;53.61;101659.06;7283647;19;152247;-64
2022/08/27 07:39:57;;;;;;;;;;;;;;;23.26;53.51;101661.56;7280462;19;152560;-63
2022/08/27 07:45:12;;;;;;;;;;;;;;;23.27;53.17;101666.03;7280518;19;152630;-63
2022/08/27 07:47:39;;;;;;;;;;;;;;;23.27;53.72;101668.84;7292481;19;152141;-63
2022/08/27 07:50:06;;;;;;;;;;;;;;;23.24;53.61;101669.50;7278125;19;153133;-62
2022/08/27 07:52:33;;;;;;;;;;;;;;;23.21;53.75;101679.41;7283721;19;152477;-63
2022/08/27 07:55:00;;;;;;;;;;;;;;;23.23;53.79;101668.66;7281618;19;154035;-63
2022/08/27 07:57:26;;;;;;;;;;;;;;;23.22;53.97;101675.44;7282078;19;153952;-63
2022/08/27 07:59:53;;;;;;;;;;;;;;;23.22;53.74;101675.44;7280243;19;151806;-64
2022/08/27 08:02:20;;;;;;;;;;;;;;;23.21;53.86;101682.22;7282824;19;153377;-63
2022/08/27 08:04:46;;;;;;;;;;;;;;;23.23;53.93;101679.94;7278206;19;153362;-63
2022/08/27 08:07:13;;;;;;;;;;;;;;;23.22;53.82;101680.22;7284211;19;152647;-63
2022/08/27 08:09:40;;;;;;;;;;;;;;;23.21;53.97;101679.41;7287800;19;153314;-63
2022/08/27 08:12:07;;;;;;;;;;;;;;;23.22;54.13;101688.69;7283496;19;152402;-63
2022/08/27 08:14:34;;;;;;;;;;;;;;;23.21;54.08;101685.06;7281235;19;154492;-61
2022/08/27 08:17:01;;;;;;;;;;;;;;;23.22;53.84;101688.69;7281773;19;154537;-63
2022/08/27 08:19:32;;;;;;;;;;;;;;;23.20;54.17;101686.19;7278405;19;152466;-63
2022/08/27 08:21:59;;;;;;;;;;;;;;;23.23;53.85;101693.19;7282014;19;153420;-63
2022/08/27 08:24:31;;;;;;;;;;;;;;;23.22;54.00;101688.69;7278648;19;153471;-63
2022/08/27 08:26:57;;;;;;;;;;;;;;;23.23;53.77;101694.03;7281818;19;152052;-62
2022/08/27 08:29:28;;;;;;;;;;;;;;;23.21;53.61;101695.50;7283842;19;152184;-63
2022/08/27 08:31:54;;;;;;;;;;;;;;;23.21;54.13;101699.16;7295858;19;154248;-63
2022/08/27 08:34:21;;;;;;;;;;;;;;;23.18;53.79;101694.09;7286018;19;152650;-63
2022/08/27 08:36:48;;;;;;;;;;;;;;;23.17;54.08;101691.63;7288619;19;156409;-63
2022/08/27 08:39:20;;;;;;;;;;;;;;;23.22;53.47;101694.31;7286948;19;151802;-63
2022/08/27 08:41:49;;;;;;;;;;;;;;;23.23;53.44;101696.84;7290648;19;153279;-63
2022/08/27 08:44:34;;;;;;;;;;;;;;;23.27;53.41;101689.44;7285719;19;153786;-63
2022/08/27 08:47:06;;;;;;;;;;;;;;;23.23;53.59;101693.19;7289324;19;152172;-63
2022/08/27 08:49:36;;;;;;;;;;;;;;;23.24;53.61;101692.88;7284595;19;153443;-63
2022/08/27 08:52:16;;;;;;;;;;;;;;;23.23;53.82;101696.00;7287185;19;154360;-63
2022/08/27 08:55:17;;;;;;;;;;;;;;;23.25;53.63;101694.56;7293351;19;152039;-64
2022/08/27 08:57:48;;;;;;;;;;;;;;;23.25;53.54;101693.72;7284282;19;152624;-63
2022/08/27 09:00:15;;;;;;;;;;;;;;;23.24;53.45;101692.88;7286601;19;152186;-64
2022/08/27 09:02:47;;;;;;;;;;;;;;;23.24;53.43;101697.69;7288438;19;154046;-63
2022/08/27 09:05:14;;;;;;;;;;;;;;;23.23;53.61;101699.66;7281416;19;153486;-63
2022/08/27 09:07:45;;;;;;;;;;;;;;;23.31;53.50;101693.31;7287657;19;151860;-64
2022/08/27 09:10:12;;;;;;;;;;;;;;;23.25;53.29;101697.38;7286163;19;152519;-63
2022/08/27 09:12:39;;;;;;;;;;;;;;;23.29;53.30;101691.97;7286447;19;154074;-64
2022/08/27 09:15:17;;;;;;;;;;;;;;;23.33;53.16;101701.47;7294503;19;152290;-63
2022/08/27 09:17:47;;;;;;;;;;;;;;;23.36;53.02;101704.50;7286662;19;153537;-63
2022/08/27 09:20:20;;;;;;;;;;;;;;;23.32;53.09;101697.81;7283181;19;152734;-63
2022/08/27 09:23:00;;;;;;;;;;;;;;;23.30;53.53;101708.59;7285940;19;154634;-63
2022/08/27 09:25:34;;;;;;;;;;;;;;;23.29;53.72;101701.25;7285481;19;154790;-62
2022/08/27 09:28:04;;;;;;;;;;;;;;;23.32;53.64;101697.81;7286267;19;153530;-63
2022/08/27 09:30:39;;;;;;;;;;;;;;;23.35;53.40;101704.78;7287095;19;154415;-62
2022/08/27 09:33:07;;;;;;;;;;;;;;;23.33;53.56;101701.47;7286218;19;153936;-63
2022/08/27 09:35:44;;;;;;;;;;;;;;;23.33;53.21;101698.66;7283711;19;151934;-63
2022/08/27 09:38:21;;;;;;;;;;;;;;;23.34;53.61;101705.97;7293827;19;155062;-62
2022/08/27 09:40:49;;;;;;;;;;;;;;;23.35;53.13;101699.16;7284102;19;152158;-62
2022/08/27 09:43:22;;;;;;;;;;;;;;;23.36;53.58;101698.03;7286638;19;152662;-63
2022/08/27 09:45:53;;;;;;;;;;;;;;;23.37;53.33;101692.09;7284575;19;153435;-63
2022/08/27 09:48:21;;;;;;;;;;;;;;;23.38;53.23;101695.75;7286409;19;152011;-63
2022/08/27 09:50:51;;;;;;;;;;;;;;;23.38;53.06;101702.22;7283372;19;153724;-63
2022/08/27 09:53:24;;;;;;;;;;;;;;;23.38;53.03;101693.75;7284798;19;154644;-63
2022/08/27 09:55:58;;;;;;;;;;;;;;;23.40;53.36;101687.78;7285420;19;152596;-63
2022/08/27 09:58:29;;;;;;;;;;;;;;;23.42;53.17;101689.16;7285008;19;153102;-63
2022/08/27 10:01:06;;;;;;;;;;;;;;;23.43;53.08;101690.84;7291402;19;153542;-62
2022/08/27 10:03:33;;;;;;;;;;;;;;;23.45;52.88;101690.56;7286446;19;152720;-62
2022/08/27 10:06:00;;;;;;;;;;;;;;;23.44;53.49;101692.53;7279683;19;153214;-63
2022/08/27 10:08:37;;;;;;;;;;;;;;;23.46;52.48;101693.06;7284566;19;152178;-63
2022/08/27 10:11:08;;;;;;;;;;;;;;;23.51;52.10;101688.47;7285939;19;154380;-63
2022/08/27 10:13:35;;;;;;;;;;;;;;;23.50;52.47;101684.81;7284454;19;154155;-63
2022/08/27 10:16:05;;;;;;;;;;;;;;;23.53;52.29;101689.03;7285968;19;152155;-62
2022/08/27 10:18:43;;;;;;;;;;;;;;;23.51;52.23;101680.03;7283122;19;154529;-64
2022/08/27 10:21:42;;;;;;;;;;;;;;;23.53;52.23;101681.38;7279021;19;153354;-63
2022/08/27 10:24:18;;;;;;;;;;;;;;;23.56;52.81;101688.38;7289331;19;151915;-63
2022/08/27 10:26:53;;;;;;;;;;;;;;;23.56;52.89;101677.94;7283355;19;152533;-63
2022/08/27 10:29:33;;;;;;;;;;;;;;;23.56;53.13;101683.59;7282771;19;152464;-63
2022/08/27 10:32:12;;;;;;;;;;;;;;;23.55;52.98;101679.09;7286983;19;155329;-63
2022/08/27 10:34:49;;;;;;;;;;;;;;;23.55;52.78;101679.09;7280374;19;153271;-63
2022/08/27 10:37:28;;;;;;;;;;;;;;;23.61;52.16;101686.31;7286446;19;152071;-63
2022/08/27 10:40:11;;;;;;;;;;;;;;;23.62;52.42;101682.31;7284860;19;153955;-63
2022/08/27 10:42:48;;;;;;;;;;;;;;;23.67;51.73;101675.75;7284211;19;153666;-63
2022/08/27 10:45:29;;;;;;;;;;;;;;;23.63;52.31;101671.88;7284978;19;152357;-63
2022/08/27 10:47:56;;;;;;;;;;;;;;;23.62;52.68;101676.69;7291034;19;153451;-63
2022/08/27 10:50:36;;;;;;;;;;;;;;;23.62;52.49;101673.03;7282186;19;153590;-62
2022/08/27 10:53:21;;;;;;;;;;;;;;;23.60;52.82;101669.69;7284688;19;152893;-63
2022/08/27 10:55:51;;;;;;;;;;;;;;;23.66;52.56;101665.63;7283941;19;152324;-63
2022/08/27 10:58:29;;;;;;;;;;;;;;;23.65;52.17;101670.44;7284184;19;152374;-62
2022/08/27 11:01:04;;;;;;;;;;;;;;;23.71;52.91;101671.19;7281898;19;153877;-62
2022/08/27 11:03:34;;;;;;;;;;;;;;;23.69;52.23;101670.63;7283101;19;154349;-62
2022/08/27 11:06:05;;;;;;;;;;;;;;;23.66;52.45;101663.66;7279124;19;153362;-62
2022/08/27 11:08:39;;;;;;;;;;;;;;;23.66;53.06;101671.28;7282727;19;152032;-63
2022/08/27 11:11:10;;;;;;;;;;;;;;;23.66;52.75;101668.44;7288941;19;153066;-62
2022/08/27 11:13:58;;;;;;;;;;;;;;;23.64;52.51;101674.41;7280707;19;154056;-63
2022/08/27 11:16:47;;;;;;;;;;;;;;;23.64;51.86;101674.41;7282932;19;155536;-63
2022/08/27 11:19:17;;;;;;;;;;;;;;;23.64;51.82;101671.56;7279719;19;151908;-62
2022/08/27 11:21:44;;;;;;;;;;;;;;;23.66;51.33;101672.13;7281887;19;153170;-63
2022/08/27 11:24:11;;;;;;;;;;;;;;;23.65;51.64;101670.44;7282496;19;153010;-62
2022/08/27 11:26:40;;;;;;;;;;;;;;;23.70;51.53;101664.69;7284310;19;153405;-63
2022/08/27 11:29:30;;;;;;;;;;;;;;;23.68;51.94;101660.50;7281514;19;152029;-62
2022/08/27 11:32:21;;;;;;;;;;;;;;;23.67;51.97;101664.47;7288869;19;153048;-62
2022/08/27 11:34:47;;;;;;;;;;;;;;;23.66;52.13;101663.66;7279645;19;152756;-62
2022/08/27 11:37:14;;;;;;;;;;;;;;;23.68;52.53;101663.31;7283577;19;153920;-62
2022/08/27 11:39:47;;;;;;;;;;;;;;;23.67;52.01;101659.66;7281879;19;152643;-62
2022/08/27 11:42:36;;;;;;;;;;;;;;;23.67;51.98;101659.66;7280101;19;153455;-63
2022/08/27 11:45:14;;;;;;;;;;;;;;;23.67;52.16;101656.00;7281525;19;152943;-62
2022/08/27 11:47:50;;;;;;;;;;;;;;;23.69;51.58;101654.53;7283450;19;152627;-62
2022/08/27 11:50:18;;;;;;;;;;;;;;;23.74;51.24;101656.44;7280406;19;152806;-63
2022/08/27 11:52:54;;;;;;;;;;;;;;;23.76;51.24;101652.13;7279285;19;153241;-62
2022/08/27 11:55:20;;;;;;;;;;;;;;;23.76;51.41;101646.50;7288276;19;152405;-63
2022/08/27 11:57:48;;;;;;;;;;;;;;;23.75;51.49;101646.81;7280929;19;154196;-63
2022/08/27 12:00:18;;;;;;;;;;;;;;;23.74;51.83;101654.44;7282744;19;152397;-62
2022/08/27 12:02:56;;;;;;;;;;;;;;;23.74;51.67;101662.91;7280020;19;152447;-62
2022/08/27 12:05:31;;;;;;;;;;;;;;;23.77;51.08;101656.63;7283726;19;154623;-63
2022/08/27 12:07:58;;;;;;;;;;;;;;;23.79;51.45;101659.16;7288797;19;152533;-62
2022/08/27 12:10:51;;;;;;;;;;;;;;;23.84;50.96;101653.41;7288487;19;152732;-62
2022/08/27 12:13:20;;;;;;;;;;;;;;;23.86;51.66;101653.91;7286319;19;154079;-62
2022/08/27 12:15:49;;;;;;;;;;;;;;;23.86;51.10;101651.94;7288130;19;152321;-63
2022/08/27 12:18:25;;;;;;;;;;;;;;;23.88;52.00;101651.63;7294978;19;153393;-62
2022/08/27 12:20:51;;;;;;;;;;;;;;;23.90;51.31;101660.59;7285314;19;152158;-62
2022/08/27 12:23:42;;;;;;;;;;;;;;;23.91;51.06;101656.63;7288896;19;152283;-62
2022/08/27 12:26:16;;;;;;;;;;;;;;;23.88;51.18;101652.47;7287052;19;153699;-63
2022/08/27 12:28:42;;;;;;;;;;;;;;;23.87;51.04;101656.44;7289546;19;152883;-63
2022/08/27 12:31:09;;;;;;;;;;;;;;;23.88;51.30;101663.75;7288700;19;153566;-62
2022/08/27 12:33:44;;;;;;;;;;;;;;;23.91;51.12;101656.63;7286996;19;153964;-62
2022/08/27 12:36:14;;;;;;;;;;;;;;;23.92;50.88;101650.69;7286375;19;152395;-62
2022/08/27 12:38:48;;;;;;;;;;;;;;;24.01;50.95;101661.22;7287218;19;153301;-62
2022/08/27 12:41:37;;;;;;;;;;;;;;;24.04;50.42;101650.13;7248135;19;154081;-62
2022/08/27 12:44:12;;;;;;;;;;;;;;;24.04;50.55;101652.13;7281410;19;152995;-62
2022/08/27 12:46:50;;;;;;;;;;;;;;;24.04;50.92;101650.13;7278857;19;156338;-63